createdAt,value
2018-07-12T00:00:13.385Z,18.19
2018-07-12T00:01:13.386Z,18.18
2018-07-12T00:02:13.385Z,18.16
2018-07-12T00:03:13.264Z,18.16
2018-07-12T00:04:13.265Z,18.24
2018-07-12T00:05:13.261Z,18.08
2018-07-12T00:06:13.144Z,18.19
2018-07-12T00:07:13.143Z,18.18
2018-07-12T00:08:13.145Z,18.19
2018-07-12T00:09:13.020Z,18.08
2018-07-12T00:10:13.024Z,18.12
2018-07-12T00:11:13.025Z,18.12
2018-07-12T00:12:12.899Z,18.09
2018-07-12T00:13:12.902Z,18.13
2018-07-12T00:14:12.899Z,18.15
2018-07-12T00:15:12.780Z,18.15
2018-07-12T00:16:12.780Z,18.09
2018-07-12T00:17:12.780Z,18.11
2018-07-12T00:18:12.660Z,18.12
2018-07-12T00:19:12.659Z,18.09
2018-07-12T00:20:12.658Z,18.09
2018-07-12T00:21:12.543Z,18.06
2018-07-12T00:22:12.540Z,18.11
2018-07-12T00:23:12.541Z,18.09
2018-07-12T00:24:12.418Z,18.08
2018-07-12T00:25:12.415Z,18.11
2018-07-12T00:26:12.374Z,18.15
2018-07-12T00:27:12.302Z,18.12
2018-07-12T00:28:12.297Z,18.12
2018-07-12T00:29:12.180Z,18.08
2018-07-12T00:30:12.179Z,18.05
2018-07-12T00:31:12.177Z,18.08
2018-07-12T00:32:12.056Z,18.02
2018-07-12T00:33:12.054Z,18.12
2018-07-12T00:34:12.055Z,18.08
2018-07-12T00:35:11.938Z,18.05
2018-07-12T00:36:11.939Z,18.05
2018-07-12T00:37:11.935Z,18.02
2018-07-12T00:38:11.814Z,18.03
2018-07-12T00:39:11.813Z,18.11
2018-07-12T00:40:11.816Z,18.02
2018-07-12T00:41:11.699Z,18.06
2018-07-12T00:42:11.699Z,18.03
2018-07-12T00:43:11.697Z,18.05
2018-07-12T00:44:11.578Z,18.02
2018-07-12T00:45:11.574Z,18.00
2018-07-12T00:46:11.573Z,18.08
2018-07-12T00:47:11.459Z,18.03
2018-07-12T00:48:11.454Z,18.00
2018-07-12T00:49:11.452Z,18.02
2018-07-12T00:50:11.334Z,18.08
2018-07-12T00:51:11.332Z,18.00
2018-07-12T00:52:11.333Z,18.00
2018-07-12T00:53:11.211Z,18.05
2018-07-12T00:54:11.214Z,18.09
2018-07-12T00:55:11.170Z,18.15
2018-07-12T00:56:11.093Z,18.03
2018-07-12T00:57:11.090Z,18.06
2018-07-12T00:58:10.973Z,17.98
2018-07-12T00:59:10.971Z,18.06
2018-07-12T01:00:10.968Z,18.11
2018-07-12T01:01:10.850Z,18.02
2018-07-12T01:02:10.850Z,17.98
2018-07-12T01:03:10.850Z,18.00
2018-07-12T01:04:10.732Z,18.03
2018-07-12T01:05:10.729Z,18.08
2018-07-12T01:06:10.727Z,18.02
2018-07-12T01:07:10.608Z,18.00
2018-07-12T01:08:10.611Z,17.97
2018-07-12T01:09:10.607Z,17.93
2018-07-12T01:10:10.488Z,18.00
2018-07-12T01:11:10.490Z,18.03
2018-07-12T01:12:10.485Z,18.05
2018-07-12T01:13:10.374Z,18.08
2018-07-12T01:14:10.369Z,18.03
2018-07-12T01:15:10.368Z,17.94
2018-07-12T01:16:10.248Z,17.97
2018-07-12T01:17:10.245Z,18.03
2018-07-12T01:18:10.248Z,17.97
2018-07-12T01:19:10.130Z,17.97
2018-07-12T01:20:10.125Z,17.97
2018-07-12T01:21:10.129Z,17.95
2018-07-12T01:22:10.007Z,17.97
2018-07-12T01:23:10.006Z,17.95
2018-07-12T01:24:09.886Z,18.06
2018-07-12T01:25:09.885Z,17.95
2018-07-12T01:26:09.885Z,18.05
2018-07-12T01:27:09.763Z,18.02
2018-07-12T01:28:09.765Z,18.03
2018-07-12T01:29:09.765Z,17.90
2018-07-12T01:30:09.646Z,17.87
2018-07-12T01:31:09.642Z,17.88
2018-07-12T01:32:09.646Z,17.88
2018-07-12T01:33:09.521Z,17.87
2018-07-12T01:34:09.526Z,17.87
2018-07-12T01:35:09.520Z,17.82
2018-07-12T01:36:09.539Z,17.90
2018-07-12T01:37:09.402Z,17.90
2018-07-12T01:38:09.404Z,17.84
2018-07-12T01:39:09.279Z,17.86
2018-07-12T01:40:09.280Z,17.86
2018-07-12T01:41:09.282Z,17.84
2018-07-12T01:42:09.160Z,17.82
2018-07-12T01:43:09.164Z,17.84
2018-07-12T01:44:09.161Z,17.84
2018-07-12T01:45:09.042Z,17.86
2018-07-12T01:46:09.041Z,17.79
2018-07-12T01:47:09.039Z,17.86
2018-07-12T01:48:08.919Z,17.84
2018-07-12T01:49:08.921Z,17.84
2018-07-12T01:50:08.923Z,17.75
2018-07-12T01:51:08.797Z,17.73
2018-07-12T01:52:08.799Z,17.78
2018-07-12T01:53:08.680Z,17.75
2018-07-12T01:54:08.680Z,17.78
2018-07-12T01:55:08.679Z,17.71
2018-07-12T01:56:08.559Z,17.76
2018-07-12T01:57:08.556Z,17.79
2018-07-12T01:58:08.559Z,17.71
2018-07-12T01:59:08.435Z,17.75
2018-07-12T02:00:08.434Z,17.66
2018-07-12T02:01:08.438Z,17.66
2018-07-12T02:02:08.317Z,17.60
2018-07-12T02:03:08.318Z,17.59
2018-07-12T02:04:08.315Z,17.60
2018-07-12T02:05:08.195Z,17.63
2018-07-12T02:06:08.202Z,17.57
2018-07-12T02:07:08.196Z,17.56
2018-07-12T02:08:08.076Z,17.53
2018-07-12T02:09:08.078Z,17.53
2018-07-12T02:10:08.073Z,17.56
2018-07-12T02:11:07.955Z,17.44
2018-07-12T02:12:07.957Z,17.56
2018-07-12T02:13:07.953Z,17.46
2018-07-12T02:14:07.833Z,17.47
2018-07-12T02:15:07.831Z,17.47
2018-07-12T02:16:07.788Z,17.38
2018-07-12T02:17:07.714Z,17.37
2018-07-12T02:18:07.715Z,17.44
2018-07-12T02:19:07.595Z,17.23
2018-07-12T02:20:07.595Z,17.24
2018-07-12T02:21:07.590Z,17.35
2018-07-12T02:22:07.475Z,17.30
2018-07-12T02:23:07.470Z,17.35
2018-07-12T02:24:07.471Z,17.37
2018-07-12T02:25:07.350Z,17.22
2018-07-12T02:26:07.354Z,17.23
2018-07-12T02:27:07.349Z,17.23
2018-07-12T02:28:07.232Z,17.20
2018-07-12T02:29:07.233Z,17.22
2018-07-12T02:30:07.231Z,17.19
2018-07-12T02:31:07.108Z,17.14
2018-07-12T02:32:07.109Z,17.14
2018-07-12T02:33:07.108Z,17.10
2018-07-12T02:34:06.986Z,17.09
2018-07-12T02:35:07.011Z,17.10
2018-07-12T02:36:06.988Z,17.01
2018-07-12T02:37:06.872Z,16.97
2018-07-12T02:38:06.867Z,16.97
2018-07-12T02:39:06.823Z,16.89
2018-07-12T02:40:06.748Z,17.02
2018-07-12T02:41:06.745Z,16.98
2018-07-12T02:42:06.704Z,16.87
2018-07-12T02:43:06.632Z,16.92
2018-07-12T02:44:06.629Z,16.83
2018-07-12T02:45:06.525Z,16.84
2018-07-12T02:46:06.581Z,16.84
2018-07-12T02:47:06.514Z,16.80
2018-07-12T02:48:06.389Z,16.83
2018-07-12T02:49:06.386Z,16.73
2018-07-12T02:50:06.391Z,16.77
2018-07-12T02:51:06.282Z,16.69
2018-07-12T02:52:06.264Z,16.74
2018-07-12T02:53:06.263Z,16.68
2018-07-12T02:54:06.143Z,16.65
2018-07-12T02:55:06.147Z,16.58
2018-07-12T02:56:06.143Z,16.62
2018-07-12T02:57:06.024Z,16.59
2018-07-12T02:58:06.023Z,16.64
2018-07-12T02:59:06.026Z,16.51
2018-07-12T03:00:05.906Z,16.55
2018-07-12T03:01:05.906Z,16.54
2018-07-12T03:02:05.782Z,16.54
2018-07-12T03:03:05.785Z,16.47
2018-07-12T03:04:05.784Z,16.40
2018-07-12T03:05:05.664Z,16.43
2018-07-12T03:06:05.669Z,16.41
2018-07-12T03:07:05.663Z,16.40
2018-07-12T03:08:05.543Z,16.40
2018-07-12T03:09:05.541Z,16.34
2018-07-12T03:10:05.542Z,16.43
2018-07-12T03:11:05.419Z,16.34
2018-07-12T03:12:05.422Z,16.32
2018-07-12T03:13:05.424Z,16.29
2018-07-12T03:14:05.301Z,16.25
2018-07-12T03:15:05.299Z,16.26
2018-07-12T03:16:05.304Z,16.25
2018-07-12T03:17:05.179Z,16.34
2018-07-12T03:18:05.178Z,16.17
2018-07-12T03:19:05.135Z,16.13
2018-07-12T03:20:05.059Z,16.13
2018-07-12T03:21:05.057Z,16.13
2018-07-12T03:22:04.940Z,16.18
2018-07-12T03:23:04.943Z,16.21
2018-07-12T03:24:04.936Z,16.28
2018-07-12T03:25:04.820Z,16.16
2018-07-12T03:26:04.820Z,16.21
2018-07-12T03:27:04.815Z,16.22
2018-07-12T03:28:04.698Z,16.22
2018-07-12T03:29:04.700Z,16.12
2018-07-12T03:30:04.702Z,16.08
2018-07-12T03:31:04.577Z,16.18
2018-07-12T03:32:04.584Z,16.17
2018-07-12T03:33:04.575Z,16.12
2018-07-12T03:34:04.457Z,16.08
2018-07-12T03:35:04.456Z,16.10
2018-07-12T03:36:04.461Z,16.17
2018-07-12T03:37:04.334Z,16.08
2018-07-12T03:38:04.336Z,16.03
2018-07-12T03:39:04.212Z,16.08
2018-07-12T03:40:04.217Z,16.05
2018-07-12T03:41:04.218Z,16.10
2018-07-12T03:42:04.094Z,16.02
2018-07-12T03:43:04.099Z,16.02
2018-07-12T03:44:04.100Z,16.02
2018-07-12T03:45:03.976Z,16.06
2018-07-12T03:46:03.972Z,16.10
2018-07-12T03:47:03.971Z,16.03
2018-07-12T03:48:03.852Z,16.02
2018-07-12T03:49:03.857Z,16.05
2018-07-12T03:50:03.853Z,15.94
2018-07-12T03:51:03.735Z,15.99
2018-07-12T03:52:03.735Z,15.96
2018-07-12T03:53:03.729Z,16.08
2018-07-12T03:54:03.609Z,16.05
2018-07-12T03:55:03.613Z,16.05
2018-07-12T03:56:03.608Z,16.05
2018-07-12T03:57:03.490Z,16.03
2018-07-12T03:58:03.535Z,16.13
2018-07-12T03:59:03.368Z,16.05
2018-07-12T04:00:03.370Z,16.03
2018-07-12T04:01:03.371Z,16.13
2018-07-12T04:02:03.252Z,16.03
2018-07-12T04:03:03.253Z,16.03
2018-07-12T04:04:03.249Z,16.05
2018-07-12T04:05:03.135Z,16.12
2018-07-12T04:06:03.133Z,16.12
2018-07-12T04:07:03.126Z,16.02
2018-07-12T04:08:03.006Z,16.09
2018-07-12T04:09:03.008Z,16.12
2018-07-12T04:10:03.005Z,16.13
2018-07-12T04:11:02.918Z,16.06
2018-07-12T04:12:02.884Z,16.10
2018-07-12T04:13:02.843Z,16.12
2018-07-12T04:14:02.764Z,16.12
2018-07-12T04:15:02.772Z,16.09
2018-07-12T04:16:02.654Z,16.16
2018-07-12T04:17:02.649Z,16.08
2018-07-12T04:18:02.645Z,16.12
2018-07-12T04:19:02.524Z,16.09
2018-07-12T04:20:02.525Z,16.13
2018-07-12T04:21:02.535Z,16.18
2018-07-12T04:22:02.402Z,16.16
2018-07-12T04:23:02.407Z,16.18
2018-07-12T04:24:02.404Z,16.22
2018-07-12T04:25:02.289Z,16.28
2018-07-12T04:26:02.284Z,16.12
2018-07-12T04:27:02.286Z,16.24
2018-07-12T04:28:02.166Z,16.13
2018-07-12T04:29:02.161Z,16.22
2018-07-12T04:30:02.163Z,16.13
2018-07-12T04:31:02.047Z,16.17
2018-07-12T04:32:02.043Z,16.24
2018-07-12T04:33:01.920Z,16.13
2018-07-12T04:34:01.925Z,16.26
2018-07-12T04:35:01.922Z,16.24
2018-07-12T04:36:01.804Z,16.29
2018-07-12T04:37:01.803Z,16.29
2018-07-12T04:38:01.805Z,16.24
2018-07-12T04:39:01.683Z,16.25
2018-07-12T04:40:01.684Z,16.29
2018-07-12T04:41:01.678Z,16.26
2018-07-12T04:42:01.558Z,16.37
2018-07-12T04:43:01.558Z,16.29
2018-07-12T04:44:01.562Z,16.29
2018-07-12T04:45:01.440Z,16.25
2018-07-12T04:46:01.439Z,16.36
2018-07-12T04:47:01.445Z,16.29
2018-07-12T04:48:01.318Z,16.39
2018-07-12T04:49:01.317Z,16.44
2018-07-12T04:50:01.284Z,16.39
2018-07-12T04:51:01.199Z,16.32
2018-07-12T04:52:01.195Z,16.39
2018-07-12T04:53:01.075Z,16.39
2018-07-12T04:54:01.078Z,16.37
2018-07-12T04:55:01.077Z,16.46
2018-07-12T04:56:00.957Z,16.41
2018-07-12T04:57:00.961Z,16.43
2018-07-12T04:58:00.958Z,16.46
2018-07-12T04:59:00.835Z,16.51
2018-07-12T05:00:00.913Z,16.46
2018-07-12T05:01:00.842Z,16.46
2018-07-12T05:02:00.721Z,16.55
2018-07-12T05:03:00.717Z,16.50
2018-07-12T05:04:00.718Z,16.51
2018-07-12T05:05:00.599Z,16.59
2018-07-12T05:06:00.598Z,16.58
2018-07-12T05:07:00.592Z,16.58
2018-07-12T05:08:00.494Z,16.62
2018-07-12T05:09:00.471Z,16.57
2018-07-12T05:10:00.354Z,16.62
2018-07-12T05:11:00.353Z,16.66
2018-07-12T05:12:00.353Z,16.69
2018-07-12T05:13:00.237Z,16.69
2018-07-12T05:14:00.248Z,16.73
2018-07-12T05:15:00.291Z,16.73
2018-07-12T05:16:00.117Z,16.73
2018-07-12T05:17:00.112Z,16.77
2018-07-12T05:18:00.124Z,16.72
2018-07-12T05:18:59.995Z,16.82
2018-07-12T05:19:59.992Z,16.76
2018-07-12T05:20:59.992Z,16.84
2018-07-12T05:21:59.926Z,16.83
2018-07-12T05:22:59.875Z,16.83
2018-07-12T05:23:59.871Z,16.89
2018-07-12T05:24:59.751Z,16.91
2018-07-12T05:25:59.755Z,16.87
2018-07-12T05:26:59.746Z,16.86
2018-07-12T05:27:59.633Z,16.91
2018-07-12T05:28:59.629Z,16.99
2018-07-12T05:29:59.508Z,16.98
2018-07-12T05:30:59.508Z,16.94
2018-07-12T05:31:59.508Z,17.02
2018-07-12T05:32:59.387Z,17.07
2018-07-12T05:33:59.388Z,17.09
2018-07-12T05:34:59.387Z,17.17
2018-07-12T05:35:59.268Z,17.16
2018-07-12T05:36:59.268Z,17.17
2018-07-12T05:37:59.266Z,17.20
2018-07-12T05:38:59.206Z,17.19
2018-07-12T05:39:59.145Z,17.22
2018-07-12T05:40:59.144Z,17.27
2018-07-12T05:41:59.028Z,17.23
2018-07-12T05:42:59.026Z,17.28
2018-07-12T05:43:59.027Z,17.28
2018-07-12T05:44:58.905Z,17.24
2018-07-12T05:45:58.905Z,17.35
2018-07-12T05:46:58.906Z,17.27
2018-07-12T05:47:58.785Z,17.31
2018-07-12T05:48:58.782Z,17.24
2018-07-12T05:49:58.789Z,17.24
2018-07-12T05:50:58.661Z,17.35
2018-07-12T05:51:58.666Z,17.39
2018-07-12T05:52:58.546Z,17.46
2018-07-12T05:53:58.543Z,17.41
2018-07-12T05:54:58.541Z,17.50
2018-07-12T05:55:58.422Z,17.49
2018-07-12T05:56:58.420Z,17.56
2018-07-12T05:57:58.420Z,17.57
2018-07-12T05:58:58.303Z,17.54
2018-07-12T05:59:58.299Z,17.66
2018-07-12T06:00:58.303Z,17.68
2018-07-12T06:01:58.179Z,17.66
2018-07-12T06:02:58.263Z,17.75
2018-07-12T06:03:58.178Z,17.75
2018-07-12T06:04:58.063Z,17.75
2018-07-12T06:05:58.063Z,17.86
2018-07-12T06:06:58.066Z,17.82
2018-07-12T06:07:57.940Z,17.87
2018-07-12T06:08:57.939Z,17.82
2018-07-12T06:09:57.937Z,17.87
2018-07-12T06:10:57.822Z,17.98
2018-07-12T06:11:57.822Z,17.94
2018-07-12T06:12:57.818Z,17.98
2018-07-12T06:13:57.699Z,17.94
2018-07-12T06:14:57.695Z,17.98
2018-07-12T06:15:57.580Z,18.00
2018-07-12T06:16:57.591Z,18.00
2018-07-12T06:17:57.579Z,18.00
2018-07-12T06:18:57.510Z,18.03
2018-07-12T06:19:57.455Z,18.09
2018-07-12T06:20:57.457Z,18.00
2018-07-12T06:21:57.339Z,18.09
2018-07-12T06:22:57.344Z,18.03
2018-07-12T06:23:57.345Z,18.00
2018-07-12T06:24:57.214Z,18.05
2018-07-12T06:25:57.216Z,18.03
2018-07-12T06:26:57.217Z,18.05
2018-07-12T06:27:57.100Z,18.03
2018-07-12T06:28:57.096Z,18.03
2018-07-12T06:29:57.122Z,18.18
2018-07-12T06:30:56.978Z,18.09
2018-07-12T06:31:56.981Z,18.23
2018-07-12T06:32:56.974Z,18.26
2018-07-12T06:33:56.855Z,18.28
2018-07-12T06:34:56.853Z,18.28
2018-07-12T06:35:56.851Z,18.28
2018-07-12T06:36:56.735Z,18.26
2018-07-12T06:37:56.737Z,18.39
2018-07-12T06:38:56.733Z,18.34
2018-07-12T06:39:56.612Z,18.39
2018-07-12T06:40:56.613Z,18.39
2018-07-12T06:41:56.612Z,18.31
2018-07-12T06:42:56.491Z,18.48
2018-07-12T06:43:56.545Z,18.46
2018-07-12T06:44:56.450Z,18.46
2018-07-12T06:45:56.374Z,18.57
2018-07-12T06:46:56.369Z,18.57
2018-07-12T06:47:56.256Z,18.49
2018-07-12T06:48:56.252Z,18.71
2018-07-12T06:49:56.251Z,18.60
2018-07-12T06:50:56.129Z,18.78
2018-07-12T06:51:56.130Z,18.74
2018-07-12T06:52:56.159Z,18.78
2018-07-12T06:53:56.007Z,18.79
2018-07-12T06:54:56.008Z,18.85
2018-07-12T06:55:56.012Z,18.76
2018-07-12T06:56:55.892Z,18.97
2018-07-12T06:57:55.893Z,18.96
2018-07-12T06:58:55.892Z,19.05
2018-07-12T06:59:55.767Z,19.05
2018-07-12T07:00:55.776Z,19.07
2018-07-12T07:01:55.768Z,19.12
2018-07-12T07:02:55.647Z,19.12
2018-07-12T07:03:55.647Z,19.23
2018-07-12T07:04:55.645Z,19.29
2018-07-12T07:05:55.581Z,19.35
2018-07-12T07:06:55.529Z,19.39
2018-07-12T07:07:55.531Z,19.41
2018-07-12T07:08:55.409Z,19.53
2018-07-12T07:09:55.407Z,19.52
2018-07-12T07:10:55.405Z,19.56
2018-07-12T07:11:55.285Z,19.55
2018-07-12T07:12:55.284Z,19.56
2018-07-12T07:13:55.285Z,19.66
2018-07-12T07:14:55.164Z,19.66
2018-07-12T07:15:55.163Z,19.74
2018-07-12T07:16:55.162Z,19.67
2018-07-12T07:17:55.045Z,19.75
2018-07-12T07:18:55.049Z,19.74
2018-07-12T07:19:55.056Z,19.78
2018-07-12T07:20:54.929Z,19.81
2018-07-12T07:21:54.937Z,19.71
2018-07-12T07:22:54.930Z,19.74
2018-07-12T07:23:54.811Z,19.75
2018-07-12T07:24:54.812Z,19.74
2018-07-12T07:25:54.807Z,19.82
2018-07-12T07:26:54.815Z,19.79
2018-07-12T07:27:54.695Z,19.87
2018-07-12T07:28:54.693Z,19.87
2018-07-12T07:29:54.564Z,19.87
2018-07-12T07:30:54.562Z,19.82
2018-07-12T07:31:54.557Z,19.89
2018-07-12T07:32:54.441Z,19.89
2018-07-12T07:33:54.443Z,19.92
2018-07-12T07:34:54.441Z,19.99
2018-07-12T07:35:54.318Z,20.12
2018-07-12T07:36:54.321Z,20.07
2018-07-12T07:37:54.276Z,20.10
2018-07-12T07:38:54.202Z,20.12
2018-07-12T07:39:54.200Z,20.21
2018-07-12T07:40:54.085Z,20.22
2018-07-12T07:41:54.085Z,20.27
2018-07-12T07:42:54.141Z,20.24
2018-07-12T07:43:54.035Z,20.22
2018-07-12T07:44:53.959Z,20.27
2018-07-12T07:45:53.959Z,20.22
2018-07-12T07:46:53.836Z,20.24
2018-07-12T07:47:53.840Z,20.33
2018-07-12T07:48:53.841Z,20.36
2018-07-12T07:49:53.716Z,20.27
2018-07-12T07:50:53.715Z,20.27
2018-07-12T07:51:53.718Z,20.29
2018-07-12T07:52:53.598Z,20.33
2018-07-12T07:53:53.594Z,20.33
2018-07-12T07:54:53.594Z,20.42
2018-07-12T07:55:53.478Z,20.40
2018-07-12T07:56:53.476Z,20.39
2018-07-12T07:57:53.481Z,20.50
2018-07-12T07:58:53.352Z,20.53
2018-07-12T07:59:53.352Z,20.55
2018-07-12T08:00:53.356Z,20.58
2018-07-12T08:01:53.233Z,20.58
2018-07-12T08:02:53.232Z,20.67
2018-07-12T08:03:53.232Z,20.74
2018-07-12T08:04:53.112Z,20.80
2018-07-12T08:05:53.112Z,20.89
2018-07-12T08:06:53.119Z,20.92
2018-07-12T08:07:52.997Z,20.85
2018-07-12T08:08:52.992Z,21.03
2018-07-12T08:09:52.994Z,21.00
2018-07-12T08:10:52.876Z,21.05
2018-07-12T08:11:52.874Z,21.14
2018-07-12T08:12:52.877Z,21.25
2018-07-12T08:13:52.754Z,21.32
2018-07-12T08:14:52.752Z,21.29
2018-07-12T08:15:52.751Z,21.37
2018-07-12T08:16:52.632Z,21.56
2018-07-12T08:17:52.631Z,21.56
2018-07-12T08:18:52.631Z,21.65
2018-07-12T08:19:52.511Z,21.70
2018-07-12T08:20:52.515Z,21.74
2018-07-12T08:21:52.508Z,21.99
2018-07-12T08:22:52.389Z,21.99
2018-07-12T08:23:52.389Z,22.14
2018-07-12T08:24:52.386Z,22.19
2018-07-12T08:25:52.268Z,22.26
2018-07-12T08:26:52.268Z,22.36
2018-07-12T08:27:52.269Z,22.38
2018-07-12T08:28:52.296Z,22.41
2018-07-12T08:29:52.206Z,22.36
2018-07-12T08:30:52.147Z,22.36
2018-07-12T08:31:52.103Z,22.36
2018-07-12T08:32:52.029Z,22.36
2018-07-12T08:33:52.028Z,22.37
2018-07-12T08:34:52.026Z,22.40
2018-07-12T08:35:51.907Z,22.49
2018-07-12T08:36:51.914Z,22.40
2018-07-12T08:37:51.905Z,22.38
2018-07-12T08:38:51.786Z,22.52
2018-07-12T08:39:51.788Z,22.65
2018-07-12T08:40:51.782Z,22.80
2018-07-12T08:41:51.669Z,23.01
2018-07-12T08:42:51.716Z,23.04
2018-07-12T08:43:51.666Z,23.16
2018-07-12T08:44:51.543Z,23.28
2018-07-12T08:45:51.542Z,23.40
2018-07-12T08:46:51.540Z,23.39
2018-07-12T08:47:51.420Z,23.49
2018-07-12T08:48:51.423Z,23.52
2018-07-12T08:49:51.422Z,23.45
2018-07-12T08:50:51.300Z,23.54
2018-07-12T08:51:51.300Z,23.55
2018-07-12T08:52:51.299Z,23.62
2018-07-12T08:53:51.184Z,23.64
2018-07-12T08:54:51.181Z,23.55
2018-07-12T08:55:51.182Z,23.64
2018-07-12T08:56:51.063Z,23.70
2018-07-12T08:57:51.059Z,23.88
2018-07-12T08:58:51.067Z,24.04
2018-07-12T08:59:50.941Z,24.10
2018-07-12T09:00:50.942Z,24.24
2018-07-12T09:01:50.939Z,24.25
2018-07-12T09:02:50.936Z,24.31
2018-07-12T09:03:50.821Z,24.29
2018-07-12T09:04:50.818Z,24.24
2018-07-12T09:05:50.774Z,24.31
2018-07-12T09:06:50.701Z,24.25
2018-07-12T09:07:50.699Z,24.32
2018-07-12T09:08:50.698Z,24.26
2018-07-12T09:09:50.579Z,24.29
2018-07-12T09:10:50.578Z,24.38
2018-07-12T09:11:50.578Z,24.38
2018-07-12T09:12:50.476Z,24.46
2018-07-12T09:13:50.458Z,24.59
2018-07-12T09:14:50.459Z,24.61
2018-07-12T09:15:50.397Z,24.56
2018-07-12T09:16:50.338Z,24.62
2018-07-12T09:17:50.332Z,24.53
2018-07-12T09:18:50.216Z,24.59
2018-07-12T09:19:50.216Z,24.68
2018-07-12T09:20:50.214Z,24.69
2018-07-12T09:21:50.194Z,24.66
2018-07-12T09:22:50.096Z,24.66
2018-07-12T09:23:50.096Z,24.77
2018-07-12T09:24:50.049Z,24.82
2018-07-12T09:25:49.973Z,25.01
2018-07-12T09:26:49.982Z,24.97
2018-07-12T09:27:49.972Z,25.12
2018-07-12T09:28:49.902Z,25.25
2018-07-12T09:29:49.857Z,25.18
2018-07-12T09:30:49.911Z,25.33
2018-07-12T09:31:49.735Z,25.29
2018-07-12T09:32:49.731Z,25.29
2018-07-12T09:33:49.736Z,25.18
2018-07-12T09:34:49.744Z,25.19
2018-07-12T09:35:49.613Z,25.24
2018-07-12T09:36:49.610Z,25.34
2018-07-12T09:37:49.493Z,25.43
2018-07-12T09:38:49.491Z,25.58
2018-07-12T09:39:49.550Z,25.54
2018-07-12T09:40:49.370Z,25.56
2018-07-12T09:41:49.367Z,25.68
2018-07-12T09:42:49.381Z,25.66
2018-07-12T09:43:49.449Z,25.74
2018-07-12T09:44:49.250Z,25.76
2018-07-12T09:45:49.247Z,25.86
2018-07-12T09:46:49.258Z,25.88
2018-07-12T09:47:49.127Z,26.04
2018-07-12T09:48:49.129Z,26.01
2018-07-12T09:49:49.131Z,26.15
2018-07-12T09:50:49.015Z,26.19
2018-07-12T09:51:49.009Z,26.22
2018-07-12T09:52:49.008Z,26.30
2018-07-12T09:53:49.005Z,26.29
2018-07-12T09:54:48.892Z,26.37
2018-07-12T09:55:48.958Z,26.45
2018-07-12T09:56:48.956Z,26.45
2018-07-12T09:57:48.770Z,26.53
2018-07-12T09:58:48.767Z,26.53
2018-07-12T09:59:48.765Z,26.67
2018-07-12T10:00:48.646Z,26.74
2018-07-12T10:01:48.649Z,26.89
2018-07-12T10:02:48.642Z,26.96
2018-07-12T10:03:48.523Z,26.88
2018-07-12T10:04:48.522Z,26.85
2018-07-12T10:05:48.528Z,26.71
2018-07-12T10:06:48.531Z,26.79
2018-07-12T10:07:48.407Z,26.70
2018-07-12T10:08:48.406Z,26.71
2018-07-12T10:09:48.406Z,26.85
2018-07-12T10:10:48.284Z,26.92
2018-07-12T10:11:48.285Z,26.97
2018-07-12T10:12:48.285Z,26.96
2018-07-12T10:13:48.164Z,26.98
2018-07-12T10:14:48.164Z,27.13
2018-07-12T10:15:48.164Z,27.13
2018-07-12T10:16:48.040Z,27.18
2018-07-12T10:17:48.043Z,27.18
2018-07-12T10:18:48.042Z,27.22
2018-07-12T10:19:48.095Z,27.35
2018-07-12T10:20:47.917Z,27.18
2018-07-12T10:21:47.919Z,27.33
2018-07-12T10:22:47.924Z,27.41
2018-07-12T10:23:47.797Z,27.44
2018-07-12T10:24:47.797Z,27.45
2018-07-12T10:25:47.798Z,27.47
2018-07-12T10:26:47.684Z,27.34
2018-07-12T10:27:47.690Z,27.34
2018-07-12T10:28:47.682Z,27.22
2018-07-12T10:29:47.708Z,27.35
2018-07-12T10:30:47.558Z,27.29
2018-07-12T10:31:47.637Z,27.22
2018-07-12T10:32:47.560Z,27.18
2018-07-12T10:33:47.438Z,27.33
2018-07-12T10:34:47.448Z,27.41
2018-07-12T10:35:47.442Z,27.44
2018-07-12T10:36:47.316Z,27.47
2018-07-12T10:37:47.320Z,27.52
2018-07-12T10:38:47.318Z,27.53
2018-07-12T10:39:47.324Z,27.57
2018-07-12T10:40:47.199Z,27.72
2018-07-12T10:41:47.195Z,27.82
2018-07-12T10:42:47.198Z,27.81
2018-07-12T10:43:47.072Z,27.97
2018-07-12T10:44:47.077Z,27.90
2018-07-12T10:45:47.071Z,27.91
2018-07-12T10:46:46.961Z,27.94
2018-07-12T10:47:46.962Z,27.98
2018-07-12T10:48:46.953Z,27.95
2018-07-12T10:49:46.956Z,28.04
2018-07-12T10:50:46.831Z,28.06
2018-07-12T10:51:46.831Z,28.00
2018-07-12T10:52:46.829Z,28.16
2018-07-12T10:53:46.713Z,28.19
2018-07-12T10:54:46.710Z,28.23
2018-07-12T10:55:46.716Z,28.23
2018-07-12T10:56:46.590Z,28.27
2018-07-12T10:57:46.592Z,28.31
2018-07-12T10:58:46.630Z,28.31
2018-07-12T10:59:46.546Z,28.37
2018-07-12T11:00:46.467Z,28.40
2018-07-12T11:01:46.467Z,28.43
2018-07-12T11:02:46.468Z,28.49
2018-07-12T11:03:46.348Z,28.52
2018-07-12T11:04:46.347Z,28.53
2018-07-12T11:05:46.349Z,28.62
2018-07-12T11:06:46.229Z,28.62
2018-07-12T11:07:46.227Z,28.60
2018-07-12T11:08:46.226Z,28.70
2018-07-12T11:09:46.226Z,28.71
2018-07-12T11:10:46.104Z,28.86
2018-07-12T11:11:46.105Z,28.84
2018-07-12T11:12:46.104Z,29.03
2018-07-12T11:13:45.983Z,29.06
2018-07-12T11:14:45.983Z,29.06
2018-07-12T11:15:46.022Z,29.03
2018-07-12T11:16:45.941Z,29.24
2018-07-12T11:17:45.867Z,29.22
2018-07-12T11:18:45.863Z,29.39
2018-07-12T11:19:45.862Z,29.42
2018-07-12T11:20:45.744Z,29.44
2018-07-12T11:21:45.746Z,29.50
2018-07-12T11:22:45.744Z,29.53
2018-07-12T11:23:45.620Z,29.50
2018-07-12T11:24:45.654Z,29.64
2018-07-12T11:25:45.627Z,29.58
2018-07-12T11:26:45.624Z,29.71
2018-07-12T11:27:45.502Z,29.71
2018-07-12T11:28:45.500Z,29.76
2018-07-12T11:29:45.521Z,29.77
2018-07-12T11:30:45.380Z,29.86
2018-07-12T11:31:45.383Z,29.87
2018-07-12T11:32:45.388Z,29.86
2018-07-12T11:33:45.381Z,29.84
2018-07-12T11:34:45.262Z,29.94
2018-07-12T11:35:45.259Z,30.02
2018-07-12T11:36:45.262Z,30.08
2018-07-12T11:37:45.141Z,30.10
2018-07-12T11:38:45.137Z,30.24
2018-07-12T11:39:45.146Z,30.24
2018-07-12T11:40:45.138Z,30.35
2018-07-12T11:41:45.020Z,30.39
2018-07-12T11:42:45.022Z,30.39
2018-07-12T11:43:45.022Z,30.51
2018-07-12T11:44:44.915Z,30.63
2018-07-12T11:45:44.900Z,30.67
2018-07-12T11:46:44.897Z,30.77
2018-07-12T11:47:44.858Z,30.92
2018-07-12T11:48:44.781Z,30.92
2018-07-12T11:49:44.777Z,31.05
2018-07-12T11:50:44.805Z,31.14
2018-07-12T11:51:44.661Z,31.22
2018-07-12T11:52:44.668Z,31.33
2018-07-12T11:53:44.659Z,31.35
2018-07-12T11:54:44.655Z,31.62
2018-07-12T11:55:44.540Z,31.59
2018-07-12T11:56:44.537Z,31.62
2018-07-12T11:57:44.537Z,31.72
2018-07-12T11:58:44.414Z,31.86
2018-07-12T11:59:44.413Z,31.92
2018-07-12T12:00:44.416Z,32.15
2018-07-12T12:01:44.501Z,32.16
2018-07-12T12:02:44.293Z,32.26
2018-07-12T12:03:44.298Z,32.16
2018-07-12T12:04:44.295Z,32.05
2018-07-12T12:05:44.174Z,32.02
2018-07-12T12:06:44.173Z,32.12
2018-07-12T12:07:44.177Z,32.17
2018-07-12T12:08:44.173Z,32.17
2018-07-12T12:09:44.054Z,32.11
2018-07-12T12:10:44.053Z,31.92
2018-07-12T12:11:44.054Z,31.72
2018-07-12T12:12:43.931Z,31.59
2018-07-12T12:13:43.933Z,31.74
2018-07-12T12:14:43.933Z,31.92
2018-07-12T12:15:43.930Z,32.00
2018-07-12T12:16:43.810Z,32.09
2018-07-12T12:17:43.819Z,32.26
2018-07-12T12:18:43.816Z,32.39
2018-07-12T12:19:43.815Z,32.45
2018-07-12T12:20:43.693Z,32.37
2018-07-12T12:21:43.695Z,32.31
2018-07-12T12:22:43.694Z,32.42
2018-07-12T12:23:43.570Z,32.59
2018-07-12T12:24:43.570Z,32.76
2018-07-12T12:25:43.568Z,32.88
2018-07-12T12:26:43.575Z,33.05
2018-07-12T12:27:43.450Z,33.19
2018-07-12T12:28:43.452Z,33.03
2018-07-12T12:29:43.450Z,32.88
2018-07-12T12:30:43.452Z,32.68
2018-07-12T12:31:43.331Z,32.59
2018-07-12T12:32:43.330Z,32.54
2018-07-12T12:33:43.327Z,32.54
2018-07-12T12:34:43.209Z,32.19
2018-07-12T12:35:43.210Z,32.09
2018-07-12T12:36:43.207Z,31.85
2018-07-12T12:37:43.212Z,31.78
2018-07-12T12:38:43.088Z,31.92
2018-07-12T12:39:43.085Z,32.29
2018-07-12T12:40:43.085Z,32.49
2018-07-12T12:41:43.088Z,32.66
2018-07-12T12:42:42.968Z,32.86
2018-07-12T12:43:42.964Z,32.97
2018-07-12T12:44:42.965Z,32.82
2018-07-12T12:45:42.844Z,32.90
2018-07-12T12:46:42.844Z,32.66
2018-07-12T12:47:42.846Z,32.61
2018-07-12T12:48:42.844Z,32.85
2018-07-12T12:49:42.726Z,33.09
2018-07-12T12:50:42.723Z,33.22
2018-07-12T12:51:42.723Z,33.42